createdAt,value
2022-12-03T00:00:35.721Z,101295.09
2022-12-03T00:03:02.403Z,101300.44
2022-12-03T00:05:29.112Z,101300.44
2022-12-03T00:07:55.736Z,101301.37
2022-12-03T00:10:22.353Z,101311.75
2022-12-03T00:12:48.903Z,101308.44
2022-12-03T00:15:16.471Z,101309.44
2022-12-03T00:17:43.041Z,101315.66
2022-12-03T00:20:11.051Z,101319.22
2022-12-03T00:22:37.644Z,101319.13
2022-12-03T00:25:04.454Z,101320.22
2022-12-03T00:27:31.099Z,101318.19
2022-12-03T00:29:57.701Z,101317.78
2022-12-03T00:32:24.276Z,101315.84
2022-12-03T00:34:50.965Z,101326.34
2022-12-03T00:37:17.711Z,101318.59
2022-12-03T00:39:44.245Z,101329.28
2022-12-03T00:42:10.851Z,101327.28
2022-12-03T00:44:37.405Z,101325.09
2022-12-03T00:47:04.268Z,101330.16
2022-12-03T00:49:31.034Z,101328.81
2022-12-03T00:51:57.576Z,101325.31
2022-12-03T00:54:29.974Z,101323.38
2022-12-03T00:56:58.388Z,101325.03
2022-12-03T00:59:25.237Z,101329.91
2022-12-03T01:01:51.932Z,101322.50
2022-12-03T01:04:18.686Z,101324.31
2022-12-03T01:06:45.367Z,101320.56
2022-12-03T01:09:11.955Z,101316.94
2022-12-03T01:11:38.767Z,101324.19
2022-12-03T01:14:06.485Z,101323.12
2022-12-03T01:16:33.291Z,101321.56
2022-12-03T01:18:59.992Z,101322.41
2022-12-03T01:21:26.577Z,101320.78
2022-12-03T01:23:53.182Z,101318.19
2022-12-03T01:26:19.806Z,101323.28
2022-12-03T01:28:46.492Z,101323.22
2022-12-03T01:31:31.392Z,101320.00
2022-12-03T01:33:58.091Z,101318.50
2022-12-03T01:36:24.666Z,101332.88
2022-12-03T01:38:51.220Z,101324.31
2022-12-03T01:41:17.872Z,101322.66
2022-12-03T01:43:44.522Z,101327.78
2022-12-03T01:46:13.786Z,101325.09
2022-12-03T01:48:40.477Z,101329.75
2022-12-03T01:51:07.320Z,101330.84
2022-12-03T01:53:35.955Z,101327.22
2022-12-03T01:56:02.554Z,101331.53
2022-12-03T01:58:29.183Z,101336.72
2022-12-03T02:01:01.109Z,101332.25
2022-12-03T02:03:27.739Z,101325.56
2022-12-03T02:05:54.314Z,101323.69
2022-12-03T02:08:30.930Z,101328.19
2022-12-03T02:11:03.118Z,101322.41
2022-12-03T02:13:29.712Z,101333.28
2022-12-03T02:15:56.286Z,101333.56
2022-12-03T02:18:22.904Z,101321.78
2022-12-03T02:21:15.927Z,101319.94
2022-12-03T02:23:57.815Z,101318.84
2022-12-03T02:26:24.389Z,101324.19
2022-12-03T02:28:51.008Z,101324.31
2022-12-03T02:31:17.730Z,101321.97
2022-12-03T02:33:44.354Z,101315.50
2022-12-03T02:36:11.067Z,101323.03
2022-12-03T02:38:37.638Z,101321.87
2022-12-03T02:41:06.715Z,101317.72
2022-12-03T02:43:33.282Z,101318.84
2022-12-03T02:46:00.252Z,101323.28
2022-12-03T02:48:30.238Z,101319.84
2022-12-03T02:51:04.406Z,101318.69
2022-12-03T02:53:44.449Z,101324.56
2022-12-03T02:56:12.280Z,101323.78
2022-12-03T02:58:38.862Z,101322.59
2022-12-03T03:01:05.567Z,101319.38
2022-12-03T03:03:32.406Z,101329.13
2022-12-03T03:05:59.539Z,101335.00
2022-12-03T03:08:26.165Z,101327.78
2022-12-03T03:10:52.722Z,101323.50
2022-12-03T03:13:19.549Z,101319.53
2022-12-03T03:15:46.224Z,101315.69
2022-12-03T03:18:13.133Z,101319.00
2022-12-03T03:20:39.773Z,101316.06
2022-12-03T03:23:07.265Z,101319.50
2022-12-03T03:25:33.813Z,101322.00
2022-12-03T03:28:00.401Z,101327.31
2022-12-03T03:30:26.977Z,101329.94
2022-12-03T03:32:53.603Z,101328.16
2022-12-03T03:35:20.208Z,101328.84
2022-12-03T03:37:46.777Z,101323.31
2022-12-03T03:40:13.849Z,101323.97
2022-12-03T03:42:40.477Z,101326.41
2022-12-03T03:45:08.035Z,101313.88
2022-12-03T03:47:34.628Z,101327.97
2022-12-03T03:50:01.221Z,101319.38
2022-12-03T03:52:27.858Z,101327.78
2022-12-03T03:54:54.620Z,101329.72
2022-12-03T03:57:21.371Z,101329.69
2022-12-03T03:59:47.965Z,101318.53
2022-12-03T04:02:24.783Z,101318.19
2022-12-03T04:04:51.813Z,101324.91
2022-12-03T04:07:18.637Z,101312.28
2022-12-03T04:09:45.252Z,101312.66
2022-12-03T04:12:30.630Z,101319.88
2022-12-03T04:14:57.744Z,101314.31
2022-12-03T04:17:24.414Z,101320.06
2022-12-03T04:19:50.969Z,101326.91
2022-12-03T04:22:36.108Z,101323.84
2022-12-03T04:25:21.509Z,101325.88
2022-12-03T04:28:06.832Z,101325.28
2022-12-03T04:30:33.412Z,101319.56
2022-12-03T04:33:18.587Z,101321.06
2022-12-03T04:35:45.234Z,101322.03
2022-12-03T04:38:12.554Z,101322.34
2022-12-03T04:40:58.545Z,101323.97
2022-12-03T04:43:25.305Z,101323.06
2022-12-03T04:45:51.970Z,101316.97
2022-12-03T04:48:18.593Z,101309.84
2022-12-03T04:50:45.249Z,101315.25
2022-12-03T04:53:11.867Z,101318.81
2022-12-03T04:55:38.488Z,101328.63
2022-12-03T04:58:05.212Z,101325.19
2022-12-03T05:00:31.903Z,101335.00
2022-12-03T05:02:58.676Z,101338.44
2022-12-03T05:05:25.338Z,101335.50
2022-12-03T05:07:51.918Z,101335.28
2022-12-03T05:10:18.531Z,101332.91
2022-12-03T05:12:45.082Z,101333.62
2022-12-03T05:15:11.628Z,101335.97
2022-12-03T05:17:38.308Z,101336.84
2022-12-03T05:20:23.953Z,101348.50
2022-12-03T05:22:50.424Z,101353.91
2022-12-03T05:25:17.091Z,101351.22
2022-12-03T05:27:43.699Z,101347.38
2022-12-03T05:30:10.585Z,101343.09
2022-12-03T05:32:38.439Z,101345.19
2022-12-03T05:35:05.334Z,101345.19
2022-12-03T05:37:31.903Z,101338.94
2022-12-03T05:39:58.500Z,101338.06
2022-12-03T05:42:43.638Z,101339.94
2022-12-03T05:45:10.674Z,101343.47
2022-12-03T05:47:37.265Z,101346.28
2022-12-03T05:50:04.078Z,101344.44
2022-12-03T05:52:47.962Z,101347.91
2022-12-03T05:55:14.825Z,101349.47
2022-12-03T06:01:02.290Z,101354.50
2022-12-03T06:03:29.010Z,101359.19
2022-12-03T06:05:55.747Z,101356.47
2022-12-03T06:08:22.406Z,101367.16
2022-12-03T06:10:49.021Z,101370.59
2022-12-03T06:13:15.686Z,101360.78
2022-12-03T06:15:44.184Z,101370.72
2022-12-03T06:18:11.098Z,101365.19
2022-12-03T06:20:37.892Z,101354.25
2022-12-03T06:23:04.566Z,101355.09
2022-12-03T06:25:31.150Z,101353.25
2022-12-03T06:27:57.720Z,101362.97
2022-12-03T06:30:24.321Z,101362.69
2022-12-03T06:32:50.953Z,101357.28
2022-12-03T06:35:17.495Z,101359.88
2022-12-03T06:37:44.037Z,101351.78
2022-12-03T06:40:11.103Z,101354.09
2022-12-03T06:42:37.699Z,101352.25
2022-12-03T06:45:04.723Z,101369.31
2022-12-03T06:47:31.293Z,101371.88
2022-12-03T06:49:57.880Z,101369.31
2022-12-03T06:52:24.512Z,101369.19
2022-12-03T06:54:51.236Z,101363.91
2022-12-03T06:57:17.905Z,101359.22
2022-12-03T06:59:44.449Z,101366.47
2022-12-03T07:02:12.577Z,101364.63
2022-12-03T07:04:52.770Z,101374.59
2022-12-03T07:07:19.444Z,101363.78
2022-12-03T07:09:45.985Z,101357.12
2022-12-03T07:12:12.664Z,101372.50
2022-12-03T07:14:39.250Z,101365.25
2022-12-03T07:17:05.845Z,101369.66
2022-12-03T07:19:33.166Z,101367.69
2022-12-03T07:22:00.206Z,101357.00
2022-12-03T07:24:26.782Z,101366.94
2022-12-03T07:26:53.359Z,101362.28
2022-12-03T07:29:19.941Z,101370.25
2022-12-03T07:31:46.589Z,101376.41
2022-12-03T07:34:13.226Z,101365.59
2022-12-03T07:36:39.771Z,101372.09
2022-12-03T07:39:06.349Z,101371.97
2022-12-03T07:41:32.925Z,101369.16
2022-12-03T07:43:59.521Z,101363.63
2022-12-03T07:46:26.180Z,101364.31
2022-12-03T07:48:52.793Z,101375.06
2022-12-03T07:51:19.386Z,101368.66
2022-12-03T07:53:45.934Z,101367.66
2022-12-03T07:56:12.552Z,101367.66
2022-12-03T07:58:39.179Z,101363.25
2022-12-03T08:01:05.974Z,101360.56
2022-12-03T08:03:32.642Z,101355.75
2022-12-03T08:05:59.204Z,101366.28
2022-12-03T08:08:25.797Z,101361.03
2022-12-03T08:10:52.415Z,101371.69
2022-12-03T08:13:19.193Z,101371.44
2022-12-03T08:15:45.830Z,101373.16
2022-12-03T08:18:14.946Z,101367.75
2022-12-03T08:20:41.861Z,101370.06
2022-12-03T08:23:14.717Z,101378.03
2022-12-03T08:25:41.664Z,101378.78
2022-12-03T08:28:12.368Z,101372.53
2022-12-03T08:30:39.286Z,101382.34
2022-12-03T08:33:31.031Z,101372.97
2022-12-03T08:35:57.632Z,101371.12
2022-12-03T08:38:25.249Z,101384.28
2022-12-03T08:40:52.389Z,101377.72
2022-12-03T08:43:26.149Z,101374.62
2022-12-03T08:45:56.289Z,101374.38
2022-12-03T08:48:37.098Z,101381.50
2022-12-03T08:51:15.484Z,101378.53
2022-12-03T08:53:54.286Z,101375.13
2022-12-03T08:56:28.925Z,101375.97
2022-12-03T08:58:57.781Z,101389.09
2022-12-03T09:01:39.094Z,101389.81
2022-12-03T09:04:16.582Z,101387.91
2022-12-03T09:06:43.283Z,101395.31
2022-12-03T09:09:09.860Z,101392.97
2022-12-03T09:11:36.628Z,101391.06
2022-12-03T09:14:03.454Z,101387.25
2022-12-03T09:16:30.165Z,101388.44
2022-12-03T09:18:56.821Z,101389.97
2022-12-03T09:21:23.346Z,101394.13
2022-12-03T09:23:49.904Z,101396.59
2022-12-03T09:26:16.442Z,101390.38
2022-12-03T09:28:43.078Z,101375.69
2022-12-03T09:31:09.636Z,101370.59
2022-12-03T09:33:36.186Z,101367.75
2022-12-03T09:36:02.789Z,101366.88
2022-12-03T09:38:29.401Z,101371.81
2022-12-03T09:40:55.935Z,101369.88
2022-12-03T09:43:24.433Z,101372.87
2022-12-03T09:45:51.085Z,101367.56
2022-12-03T09:48:18.558Z,101363.72
2022-12-03T09:50:45.166Z,101369.84
2022-12-03T09:53:17.751Z,101352.31
2022-12-03T09:55:45.303Z,101360.09
2022-12-03T09:58:12.916Z,101364.72
2022-12-03T10:00:39.477Z,101351.78
2022-12-03T10:03:06.389Z,101358.03
2022-12-03T10:05:33.503Z,101350.38
2022-12-03T10:08:10.409Z,101356.50
2022-12-03T10:10:37.249Z,101351.13
2022-12-03T10:13:04.038Z,101353.72
2022-12-03T10:15:30.607Z,101343.84
2022-12-03T10:17:58.316Z,101332.56
2022-12-03T10:20:25.046Z,101333.25
2022-12-03T10:22:51.798Z,101331.00
2022-12-03T10:25:20.093Z,101324.56
2022-12-03T10:28:02.830Z,101328.00
2022-12-03T10:30:29.556Z,101320.19
2022-12-03T10:32:57.601Z,101315.66
2022-12-03T10:35:38.178Z,101313.84
2022-12-03T10:38:19.414Z,101313.09
2022-12-03T10:40:46.165Z,101309.81
2022-12-03T10:43:18.803Z,101307.91
2022-12-03T10:45:45.805Z,101303.28
2022-12-03T10:48:13.589Z,101303.81
2022-12-03T10:50:50.620Z,101305.78
2022-12-03T10:53:17.744Z,101294.28
2022-12-03T10:55:44.978Z,101298.31
2022-12-03T10:58:24.361Z,101289.53
2022-12-03T11:00:52.401Z,101296.38
2022-12-03T11:03:21.381Z,101300.88
2022-12-03T11:05:48.445Z,101292.22
2022-12-03T11:08:19.913Z,101283.41
2022-12-03T11:10:55.168Z,101286.62
2022-12-03T11:13:29.189Z,101285.94
2022-12-03T11:15:55.968Z,101279.25
2022-12-03T11:18:37.998Z,101274.84
2022-12-03T11:21:11.368Z,101273.13
2022-12-03T11:23:46.942Z,101267.53
2022-12-03T11:26:19.613Z,101262.16
2022-12-03T11:28:46.469Z,101255.09
2022-12-03T11:31:36.404Z,101256.16
2022-12-03T11:34:14.909Z,101255.00
2022-12-03T11:37:09.659Z,101252.94
2022-12-03T11:39:48.192Z,101249.53
2022-12-03T11:42:26.860Z,101246.84
2022-12-03T11:45:05.451Z,101241.78
2022-12-03T11:47:38.789Z,101239.94
2022-12-03T11:50:18.142Z,101252.62
2022-12-03T11:52:45.230Z,101244.88
2022-12-03T11:55:30.369Z,101239.03
2022-12-03T11:58:04.346Z,101240.09
2022-12-03T12:00:30.925Z,101240.28
2022-12-03T12:02:58.083Z,101238.69
2022-12-03T12:05:27.632Z,101233.81
2022-12-03T12:07:54.455Z,101239.91
2022-12-03T12:10:46.776Z,101238.31
2022-12-03T12:13:31.736Z,101235.22
2022-12-03T12:15:59.214Z,101233.34
2022-12-03T12:18:55.014Z,101232.97
2022-12-03T12:22:17.329Z,101222.81
2022-12-03T12:24:47.569Z,101221.97
2022-12-03T12:27:23.805Z,101212.69
2022-12-03T12:29:55.051Z,101210.41
2022-12-03T12:32:47.793Z,101220.41
2022-12-03T12:35:21.653Z,101224.63
2022-12-03T12:37:58.124Z,101222.41
2022-12-03T12:40:27.940Z,101218.56
2022-12-03T12:42:57.550Z,101217.97
2022-12-03T12:45:44.658Z,101220.19
2022-12-03T12:48:19.988Z,101221.31
2022-12-03T12:50:47.569Z,101212.87
2022-12-03T12:53:27.179Z,101209.50
2022-12-03T12:56:01.326Z,101210.88
2022-12-03T12:58:31.965Z,101203.50
2022-12-03T13:01:05.454Z,101202.38
2022-12-03T13:03:37.104Z,101199.94
2022-12-03T13:06:03.802Z,101200.09
2022-12-03T13:08:45.784Z,101207.28
2022-12-03T13:11:24.567Z,101207.16
2022-12-03T13:13:51.229Z,101202.44
2022-12-03T13:16:33.715Z,101205.47
2022-12-03T13:19:00.571Z,101202.28
2022-12-03T13:21:40.425Z,101216.75
2022-12-03T13:24:32.304Z,101220.59
2022-12-03T13:27:00.088Z,101228.88
2022-12-03T13:29:27.192Z,101221.09
2022-12-03T13:32:01.888Z,101215.91
2022-12-03T13:34:33.483Z,101217.00
2022-12-03T13:37:05.197Z,101208.28
2022-12-03T13:39:35.849Z,101218.97
2022-12-03T13:42:38.856Z,101220.00
2022-12-03T13:45:17.639Z,101218.44
2022-12-03T13:47:45.658Z,101229.34
2022-12-03T13:50:23.356Z,101219.78
2022-12-03T13:52:50.005Z,101213.56
2022-12-03T13:55:25.652Z,101218.19
2022-12-03T13:57:52.334Z,101214.53
2022-12-03T14:00:19.168Z,101220.00
2022-12-03T14:02:45.833Z,101220.09
2022-12-03T14:05:12.509Z,101223.72
2022-12-03T14:07:39.277Z,101225.59
2022-12-03T14:10:07.343Z,101228.34
2022-12-03T14:12:34.028Z,101227.56
2022-12-03T14:15:01.713Z,101233.84
2022-12-03T14:17:28.393Z,101226.78
2022-12-03T14:19:55.067Z,101230.34
2022-12-03T14:22:23.404Z,101224.09
2022-12-03T14:24:50.354Z,101236.66
2022-12-03T14:27:16.905Z,101226.97
2022-12-03T14:29:43.450Z,101230.44
2022-12-03T14:32:10.180Z,101233.25
2022-12-03T14:34:36.796Z,101233.16
2022-12-03T14:37:03.409Z,101235.12
2022-12-03T14:39:30.007Z,101234.44
2022-12-03T14:42:14.666Z,101236.94
2022-12-03T14:44:42.724Z,101239.78
2022-12-03T14:47:09.650Z,101228.28
2022-12-03T14:49:36.367Z,101237.25
2022-12-03T14:52:03.114Z,101239.91
2022-12-03T14:54:30.085Z,101241.62
2022-12-03T14:56:56.732Z,101243.53
2022-12-03T14:59:27.649Z,101235.75
2022-12-03T15:01:54.849Z,101232.47
2022-12-03T15:04:21.596Z,101242.09
2022-12-03T15:06:48.212Z,101244.00
2022-12-03T15:09:14.803Z,101243.03
2022-12-03T15:11:45.894Z,101239.50
2022-12-03T15:14:13.018Z,101241.22
2022-12-03T15:16:39.659Z,101241.31
2022-12-03T15:19:06.283Z,101250.28
2022-12-03T15:21:34.892Z,101241.31
2022-12-03T15:24:02.184Z,101238.78
2022-12-03T15:26:28.826Z,101238.78
2022-12-03T15:28:55.386Z,101244.13
2022-12-03T15:31:22.051Z,101244.31
2022-12-03T15:33:48.841Z,101238.97
2022-12-03T15:36:15.454Z,101247.03
2022-12-03T15:38:42.043Z,101254.25
2022-12-03T15:41:28.866Z,101250.72
2022-12-03T15:43:59.918Z,101251.69
2022-12-03T15:46:28.003Z,101252.75
2022-12-03T15:48:55.221Z,101252.75
2022-12-03T15:51:21.827Z,101248.28
2022-12-03T15:53:48.432Z,101247.44
2022-12-03T15:56:15.008Z,101247.44
2022-12-03T15:58:41.638Z,101243.91
2022-12-03T16:01:08.649Z,101245.94
2022-12-03T16:03:35.524Z,101251.19
2022-12-03T16:06:02.106Z,101243.19
2022-12-03T16:08:28.690Z,101251.25
2022-12-03T16:10:55.269Z,101240.66
2022-12-03T16:13:21.831Z,101242.44
2022-12-03T16:15:48.442Z,101245.22
2022-12-03T16:18:15.062Z,101244.13
2022-12-03T16:20:41.596Z,101248.66
2022-12-03T16:23:08.277Z,101254.84
2022-12-03T16:25:34.874Z,101254.84
2022-12-03T16:28:01.433Z,101265.38
2022-12-03T16:30:28.043Z,101255.66
2022-12-03T16:32:54.641Z,101256.44
2022-12-03T16:35:21.198Z,101252.97
2022-12-03T16:37:47.753Z,101257.47
2022-12-03T16:40:14.323Z,101254.06
2022-12-03T16:42:40.985Z,101263.78
2022-12-03T16:45:08.375Z,101259.00
2022-12-03T16:47:35.259Z,101257.28
2022-12-03T16:50:02.589Z,101252.03
2022-12-03T16:52:29.174Z,101258.09
2022-12-03T16:54:55.749Z,101250.31
2022-12-03T16:57:22.302Z,101252.91
2022-12-03T16:59:48.878Z,101255.66
2022-12-03T17:02:15.591Z,101257.28
2022-12-03T17:04:42.220Z,101258.47
2022-12-03T17:07:08.769Z,101258.31
2022-12-03T17:09:35.337Z,101253.44
2022-12-03T17:12:01.932Z,101257.47
2022-12-03T17:14:33.065Z,101263.94
2022-12-03T17:17:00.122Z,101263.78
2022-12-03T17:19:26.710Z,101260.91
2022-12-03T17:21:54.332Z,101262.78
2022-12-03T17:24:21.438Z,101261.97
2022-12-03T17:26:48.102Z,101256.66
2022-12-03T17:29:14.667Z,101264.66
2022-12-03T17:31:42.630Z,101266.31
2022-12-03T17:34:09.764Z,101267.31
2022-12-03T17:36:36.339Z,101266.53
2022-12-03T17:39:02.926Z,101267.41
2022-12-03T17:41:29.614Z,101264.66
2022-12-03T17:43:56.189Z,101264.66
2022-12-03T17:46:22.841Z,101260.34
2022-12-03T17:48:49.639Z,101262.22
2022-12-03T17:51:16.259Z,101264.81
2022-12-03T17:53:42.880Z,101265.03
2022-12-03T17:56:09.652Z,101264.88
2022-12-03T17:58:36.244Z,101258.59
2022-12-03T18:01:03.444Z,101256.44
2022-12-03T18:03:30.548Z,101260.56
2022-12-03T18:05:57.227Z,101261.56
2022-12-03T18:08:23.948Z,101254.50
2022-12-03T18:10:50.631Z,101264.09
2022-12-03T18:13:17.337Z,101264.22
2022-12-03T18:15:43.986Z,101261.56
2022-12-03T18:18:10.685Z,101264.22
2022-12-03T18:20:37.438Z,101269.00
2022-12-03T18:23:04.029Z,101262.59
2022-12-03T18:25:30.585Z,101265.47
2022-12-03T18:27:57.190Z,101266.41
2022-12-03T18:30:23.781Z,101252.84
2022-12-03T18:32:50.889Z,101256.44
2022-12-03T18:35:18.048Z,101264.75
2022-12-03T18:37:44.724Z,101255.50
2022-12-03T18:40:22.680Z,101259.28
2022-12-03T18:42:49.265Z,101258.34
2022-12-03T18:45:16.336Z,101264.41
2022-12-03T18:47:43.061Z,101272.62
2022-12-03T18:50:10.011Z,101268.19
2022-12-03T18:52:36.622Z,101269.25
2022-12-03T18:55:03.928Z,101274.41
2022-12-03T18:57:30.478Z,101276.28
2022-12-03T18:59:57.298Z,101265.81
2022-12-03T19:03:00.616Z,101269.16
2022-12-03T19:05:10.870Z,101277.25
2022-12-03T19:07:37.618Z,101269.00
2022-12-03T19:10:04.664Z,101263.72
2022-12-03T19:12:31.702Z,101267.34
2022-12-03T19:14:58.493Z,101257.72
2022-12-03T19:17:27.047Z,101264.84
2022-12-03T19:19:53.977Z,101266.47
2022-12-03T19:22:20.868Z,101271.91
2022-12-03T19:24:47.549Z,101275.50
2022-12-03T19:27:14.233Z,101273.63
2022-12-03T19:29:40.829Z,101269.25
2022-12-03T19:32:07.460Z,101276.28
2022-12-03T19:34:34.067Z,101279.06
2022-12-03T19:37:00.669Z,101281.06
2022-12-03T19:39:27.328Z,101276.59
2022-12-03T19:41:53.912Z,101282.56
2022-12-03T19:44:20.512Z,101285.72
2022-12-03T19:46:51.177Z,101283.41
2022-12-03T19:49:20.859Z,101290.81
2022-12-03T19:51:47.543Z,101289.03
2022-12-03T19:54:14.126Z,101295.22
2022-12-03T19:56:40.723Z,101294.28
2022-12-03T19:59:07.971Z,101290.66
2022-12-03T20:01:35.348Z,101282.78
2022-12-03T20:04:02.700Z,101278.94
2022-12-03T20:06:31.592Z,101285.47
2022-12-03T20:08:59.206Z,101286.78
2022-12-03T20:11:27.865Z,101277.66
2022-12-03T20:13:56.013Z,101276.72
2022-12-03T20:16:22.782Z,101285.28
2022-12-03T20:18:49.521Z,101285.06
2022-12-03T20:21:17.614Z,101288.44
2022-12-03T20:23:44.245Z,101286.22
2022-12-03T20:26:12.890Z,101286.56
2022-12-03T20:28:39.676Z,101289.84
2022-12-03T20:31:10.720Z,101284.31
2022-12-03T20:33:42.436Z,101275.22
2022-12-03T20:36:09.937Z,101277.81
2022-12-03T20:38:37.239Z,101277.75
2022-12-03T20:41:08.740Z,101270.97
2022-12-03T20:43:35.384Z,101276.16
2022-12-03T20:46:15.380Z,101277.03
2022-12-03T20:48:42.476Z,101280.31
2022-12-03T20:51:10.673Z,101279.47
2022-12-03T20:53:37.365Z,101279.31
2022-12-03T20:56:04.523Z,101274.66
2022-12-03T20:58:31.298Z,101280.63
2022-12-03T21:01:16.169Z,101275.69
2022-12-03T21:03:43.624Z,101279.72
2022-12-03T21:06:10.360Z,101277.09
2022-12-03T21:08:41.625Z,101281.34
2022-12-03T21:11:19.656Z,101282.53
2022-12-03T21:13:46.482Z,101274.50
2022-12-03T21:16:17.575Z,101276.25
2022-12-03T21:18:44.184Z,101272.78
2022-12-03T21:21:11.050Z,101264.31
2022-12-03T21:23:37.636Z,101268.56
2022-12-03T21:26:04.796Z,101264.94
2022-12-03T21:28:31.508Z,101271.00
2022-12-03T21:31:06.166Z,101271.53
2022-12-03T21:33:32.900Z,101274.91
2022-12-03T21:35:59.729Z,101283.22
2022-12-03T21:38:26.433Z,101287.09
2022-12-03T21:40:53.186Z,101271.84
2022-12-03T21:43:19.744Z,101278.03
2022-12-03T21:45:46.383Z,101268.78
2022-12-03T21:48:13.590Z,101264.94
2022-12-03T21:50:40.188Z,101264.59
2022-12-03T21:53:06.863Z,101268.41
2022-12-03T21:55:33.499Z,101260.63
2022-12-03T21:58:00.116Z,101266.66
2022-12-03T22:00:26.747Z,101262.25
2022-12-03T22:02:53.372Z,101271.06
2022-12-03T22:05:20.015Z,101266.59
2022-12-03T22:07:46.645Z,101273.56
2022-12-03T22:10:13.274Z,101266.50
2022-12-03T22:12:41.835Z,101264.59
2022-12-03T22:15:13.533Z,101264.59
2022-12-03T22:17:45.347Z,101266.34
2022-12-03T22:20:12.331Z,101265.50
2022-12-03T22:22:38.953Z,101259.03
2022-12-03T22:25:05.625Z,101257.50
2022-12-03T22:27:32.204Z,101259.25
2022-12-03T22:29:58.781Z,101266.12
2022-12-03T22:32:25.785Z,101267.94
2022-12-03T22:34:52.384Z,101256.22
2022-12-03T22:37:18.932Z,101251.59
2022-12-03T22:39:45.481Z,101255.59
2022-12-03T22:42:12.087Z,101247.44
2022-12-03T22:44:38.643Z,101244.53
2022-12-03T22:47:05.311Z,101246.38
2022-12-03T22:49:31.956Z,101246.47
2022-12-03T22:51:58.526Z,101241.91
2022-12-03T22:54:25.098Z,101245.62
2022-12-03T22:56:51.750Z,101250.97
2022-12-03T22:59:18.510Z,101249.16
2022-12-03T23:01:45.565Z,101247.44
2022-12-03T23:04:12.259Z,101253.63
2022-12-03T23:06:38.944Z,101250.78
2022-12-03T23:09:06.004Z,101243.66
2022-12-03T23:11:32.691Z,101243.56
2022-12-03T23:13:59.649Z,101239.00
2022-12-03T23:16:28.199Z,101244.53
2022-12-03T23:18:54.849Z,101237.03
2022-12-03T23:21:28.986Z,101239.69
2022-12-03T23:23:57.305Z,101239.84
2022-12-03T23:26:23.933Z,101242.63
2022-12-03T23:28:50.546Z,101239.69
2022-12-03T23:31:24.635Z,101236.09
2022-12-03T23:33:51.392Z,101227.31
2022-12-03T23:36:18.001Z,101231.06
2022-12-03T23:38:44.638Z,101230.03
2022-12-03T23:41:15.580Z,101220.37
2022-12-03T23:43:42.194Z,101215.91
2022-12-03T23:46:10.778Z,101222.34
2022-12-03T23:48:37.373Z,101217.72
2022-12-03T23:51:12.275Z,101222.19
2022-12-03T23:53:38.933Z,101213.22
2022-12-03T23:56:09.576Z,101215.91
2022-12-03T23:58:36.129Z,101215.91
